FPO7AC LFPG-LEMD
Flight info
| Callsign | FPO7AC |
|---|---|
| Flight time | 1h 41m |
| Altitude | 37000 |
| Route | AGOPA DCT ARKIP DCT ARNAV DCT LMG DCT UVELI DCT OSMOB DCT ARVID DCT PPN DCT NOLSA DCT ALEPO DCT VASUM DCT BANEV |
| Aircraft | B738/M-SDE2E3FGHIRWXY/LB1 |
Departure
| Time | 2026-04-30 04:02 |
|---|---|
| Airport | Charles de Gaulle International Airport (LFPG) |
Arrival
| Time | 2026-04-30 05:43 |
|---|---|
| Airport | Adolfo Suárez Madrid–Barajas Airport (LEMD) |
| Time | Latitude | Longitude | Altitude | Speed | Heading |
|---|---|---|---|---|---|
| 2026-04-30 03:44 | 49.01303 | 2.49876 | 360 ft | 0 kts | 175° |
| 2026-04-30 03:51 | 49.01309 | 2.49875 | 360 ft | 3 kts | 175° |
| 2026-04-30 03:51 | 49.01328 | 2.49873 | 363 ft | 3 kts | 175° |
| 2026-04-30 03:51 | 49.01347 | 2.49871 | 358 ft | 3 kts | 175° |
| 2026-04-30 03:51 | 49.01366 | 2.49868 | 360 ft | 3 kts | 175° |
| 2026-04-30 03:52 | 49.01373 | 2.49867 | 358 ft | 0 kts | 175° |
| 2026-04-30 03:55 | 49.01368 | 2.49872 | 360 ft | 1 kts | 144° |
| 2026-04-30 03:56 | 49.01364 | 2.49896 | 359 ft | 3 kts | 83° |
| 2026-04-30 03:56 | 49.01388 | 2.49908 | 359 ft | 5 kts | 0° |
| 2026-04-30 03:56 | 49.01433 | 2.49908 | 356 ft | 8 kts | 359° |
| 2026-04-30 03:56 | 49.01491 | 2.49901 | 359 ft | 9 kts | 354° |
| 2026-04-30 03:57 | 49.01563 | 2.49903 | 353 ft | 11 kts | 8° |
| 2026-04-30 03:57 | 49.01592 | 2.49977 | 353 ft | 7 kts | 86° |
| 2026-04-30 03:57 | 49.01595 | 2.50063 | 353 ft | 9 kts | 86° |
| 2026-04-30 03:57 | 49.01599 | 2.50168 | 360 ft | 11 kts | 86° |
| 2026-04-30 03:58 | 49.01605 | 2.50289 | 359 ft | 12 kts | 85° |
| 2026-04-30 03:58 | 49.01612 | 2.50423 | 353 ft | 13 kts | 85° |
| 2026-04-30 03:58 | 49.01620 | 2.50572 | 353 ft | 15 kts | 85° |
| 2026-04-30 03:58 | 49.01629 | 2.50731 | 356 ft | 15 kts | 86° |
| 2026-04-30 03:59 | 49.01636 | 2.50896 | 353 ft | 16 kts | 86° |
| 2026-04-30 03:59 | 49.01645 | 2.51065 | 361 ft | 16 kts | 84° |
| 2026-04-30 03:59 | 49.01662 | 2.51216 | 356 ft | 13 kts | 59° |
| 2026-04-30 03:59 | 49.01744 | 2.51267 | 353 ft | 14 kts | 2° |
| 2026-04-30 04:00 | 49.01847 | 2.51262 | 353 ft | 16 kts | 356° |
| 2026-04-30 04:00 | 49.01948 | 2.51252 | 353 ft | 13 kts | 6° |
| 2026-04-30 04:00 | 49.02026 | 2.51323 | 356 ft | 14 kts | 42° |
| 2026-04-30 04:00 | 49.02061 | 2.51383 | 355 ft | 1 kts | 61° |
| 2026-04-30 04:01 | 49.02066 | 2.51407 | 359 ft | 4 kts | 72° |
| 2026-04-30 04:01 | 49.02076 | 2.51470 | 355 ft | 7 kts | 79° |
| 2026-04-30 04:01 | 49.02077 | 2.51485 | 360 ft | 5 kts | 82° |
| 2026-04-30 04:01 | 49.02102 | 2.51984 | 352 ft | 91 kts | 85° |
| 2026-04-30 04:02 | 49.02177 | 2.53344 | 359 ft | 164 kts | 85° |
| 2026-04-30 04:02 | 49.02286 | 2.55347 | 439 ft | 209 kts | 85° |
| 2026-04-30 04:02 | 49.02403 | 2.57548 | 1378 ft | 206 kts | 86° |
| 2026-04-30 04:02 | 49.02519 | 2.59860 | 1906 ft | 233 kts | 90° |
| 2026-04-30 04:03 | 49.02647 | 2.62361 | 2665 ft | 241 kts | 89° |
| 2026-04-30 04:03 | 49.02782 | 2.64926 | 3578 ft | 244 kts | 87° |
| 2026-04-30 04:03 | 49.02921 | 2.67503 | 4542 ft | 245 kts | 86° |
| 2026-04-30 04:03 | 49.03058 | 2.70101 | 5455 ft | 248 kts | 86° |
| 2026-04-30 04:04 | 49.03196 | 2.72718 | 6289 ft | 254 kts | 86° |
| 2026-04-30 04:04 | 49.03336 | 2.75418 | 7145 ft | 257 kts | 87° |
| 2026-04-30 04:04 | 49.03478 | 2.78165 | 7955 ft | 263 kts | 87° |
| 2026-04-30 04:04 | 49.03622 | 2.80969 | 8808 ft | 266 kts | 87° |
| 2026-04-30 04:05 | 49.03768 | 2.83799 | 9657 ft | 270 kts | 87° |
| 2026-04-30 04:05 | 49.03916 | 2.86694 | 10379 ft | 276 kts | 87° |
| 2026-04-30 04:05 | 49.04068 | 2.89720 | 10735 ft | 298 kts | 87° |
| 2026-04-30 04:05 | 49.04185 | 2.92959 | 11198 ft | 311 kts | 95° |
| 2026-04-30 04:06 | 49.03631 | 2.96144 | 11893 ft | 316 kts | 118° |
| 2026-04-30 04:06 | 49.02271 | 2.98748 | 12749 ft | 318 kts | 139° |
| 2026-04-30 04:06 | 49.00328 | 3.00415 | 13482 ft | 328 kts | 160° |
| 2026-04-30 04:06 | 48.98051 | 3.00913 | 14237 ft | 335 kts | 175° |
| 2026-04-30 04:07 | 48.95704 | 3.00999 | 14917 ft | 340 kts | 176° |
| 2026-04-30 04:07 | 48.93322 | 3.00990 | 15574 ft | 346 kts | 182° |
| 2026-04-30 04:07 | 48.90980 | 2.99949 | 16235 ft | 359 kts | 204° |
| 2026-04-30 04:08 | 48.87467 | 2.94432 | 17578 ft | 380 kts | 242° |
| 2026-04-30 04:08 | 48.86674 | 2.90574 | 18212 ft | 388 kts | 257° |
| 2026-04-30 04:08 | 48.86243 | 2.86497 | 18799 ft | 393 kts | 261° |
| 2026-04-30 04:08 | 48.85888 | 2.82354 | 19363 ft | 398 kts | 261° |
| 2026-04-30 04:09 | 48.85530 | 2.78175 | 19946 ft | 401 kts | 261° |
| 2026-04-30 04:09 | 48.85138 | 2.73969 | 20522 ft | 404 kts | 260° |
| 2026-04-30 04:09 | 48.84715 | 2.69730 | 21086 ft | 408 kts | 260° |
| 2026-04-30 04:09 | 48.84276 | 2.65466 | 21641 ft | 411 kts | 259° |
| 2026-04-30 04:10 | 48.83493 | 2.61356 | 22135 ft | 411 kts | 240° |
| 2026-04-30 04:10 | 48.81946 | 2.57745 | 22757 ft | 408 kts | 231° |
| 2026-04-30 04:10 | 48.80264 | 2.54262 | 23303 ft | 411 kts | 230° |
| 2026-04-30 04:10 | 48.78558 | 2.50738 | 23777 ft | 416 kts | 231° |
| 2026-04-30 04:11 | 48.76858 | 2.47169 | 24217 ft | 419 kts | 231° |
| 2026-04-30 04:11 | 48.75162 | 2.43565 | 24715 ft | 421 kts | 232° |
| 2026-04-30 04:11 | 48.73433 | 2.39983 | 25204 ft | 421 kts | 226° |
| 2026-04-30 04:11 | 48.71229 | 2.37142 | 25604 ft | 416 kts | 207° |
| 2026-04-30 04:12 | 48.68726 | 2.34952 | 26085 ft | 417 kts | 206° |
| 2026-04-30 04:12 | 48.66204 | 2.32760 | 26500 ft | 420 kts | 207° |
| 2026-04-30 04:12 | 48.63670 | 2.30534 | 26902 ft | 423 kts | 207° |
| 2026-04-30 04:12 | 48.61129 | 2.28276 | 27327 ft | 425 kts | 208° |
| 2026-04-30 04:13 | 48.58581 | 2.25992 | 27746 ft | 427 kts | 209° |
| 2026-04-30 04:13 | 48.56026 | 2.23696 | 28144 ft | 429 kts | 209° |
| 2026-04-30 04:13 | 48.53452 | 2.21386 | 28517 ft | 432 kts | 209° |
| 2026-04-30 04:13 | 48.50858 | 2.19063 | 28874 ft | 435 kts | 209° |
| 2026-04-30 04:14 | 48.48247 | 2.16751 | 29259 ft | 437 kts | 208° |
| 2026-04-30 04:14 | 48.45611 | 2.14441 | 29582 ft | 440 kts | 210° |
| 2026-04-30 04:14 | 48.42962 | 2.12126 | 29983 ft | 441 kts | 210° |
| 2026-04-30 04:14 | 48.40309 | 2.09806 | 30365 ft | 442 kts | 211° |
| 2026-04-30 04:15 | 48.37647 | 2.07477 | 30617 ft | 445 kts | 212° |
| 2026-04-30 04:15 | 48.34969 | 2.05132 | 30888 ft | 446 kts | 212° |
| 2026-04-30 04:15 | 48.32281 | 2.02784 | 31157 ft | 448 kts | 211° |
| 2026-04-30 04:15 | 48.29436 | 2.00830 | 31287 ft | 456 kts | 195° |
| 2026-04-30 04:16 | 48.26287 | 2.00225 | 31574 ft | 458 kts | 180° |
| 2026-04-30 04:16 | 48.23111 | 2.00339 | 32008 ft | 456 kts | 178° |
| 2026-04-30 04:16 | 48.19987 | 2.00533 | 32289 ft | 456 kts | 178° |
| 2026-04-30 04:16 | 48.16806 | 2.00715 | 32529 ft | 458 kts | 179° |
| 2026-04-30 04:17 | 48.13614 | 2.00849 | 32754 ft | 460 kts | 180° |
| 2026-04-30 04:17 | 48.10395 | 2.00949 | 32927 ft | 463 kts | 180° |
| 2026-04-30 04:17 | 48.07178 | 2.01044 | 33186 ft | 464 kts | 179° |
| 2026-04-30 04:17 | 48.03948 | 2.01199 | 33489 ft | 464 kts | 179° |
| 2026-04-30 04:18 | 48.00716 | 2.01392 | 33712 ft | 465 kts | 178° |
| 2026-04-30 04:18 | 47.97505 | 2.01597 | 34154 ft | 461 kts | 178° |
| 2026-04-30 04:18 | 47.94312 | 2.01799 | 34456 ft | 460 kts | 178° |
| 2026-04-30 04:18 | 47.91108 | 2.01995 | 34667 ft | 460 kts | 179° |
| 2026-04-30 04:19 | 47.87910 | 2.02185 | 34902 ft | 461 kts | 178° |
| 2026-04-30 04:19 | 47.84713 | 2.02370 | 35208 ft | 458 kts | 178° |
| 2026-04-30 04:19 | 47.81544 | 2.02553 | 35591 ft | 454 kts | 178° |
| 2026-04-30 04:19 | 47.78397 | 2.02733 | 35881 ft | 452 kts | 178° |
| 2026-04-30 04:20 | 47.75248 | 2.02914 | 36110 ft | 452 kts | 177° |
| 2026-04-30 04:20 | 47.72117 | 2.03094 | 36404 ft | 450 kts | 177° |
| 2026-04-30 04:20 | 47.68995 | 2.03273 | 36699 ft | 448 kts | 177° |
| 2026-04-30 04:20 | 47.65888 | 2.03404 | 36945 ft | 447 kts | 181° |
| 2026-04-30 04:21 | 47.62799 | 2.02928 | 37135 ft | 447 kts | 190° |
| 2026-04-30 04:21 | 47.59793 | 2.01733 | 37384 ft | 447 kts | 200° |
| 2026-04-30 04:21 | 47.56911 | 2.00056 | 37685 ft | 444 kts | 201° |
| 2026-04-30 04:21 | 47.54160 | 1.98407 | 37839 ft | 445 kts | 201° |
| 2026-04-30 04:22 | 47.51288 | 1.96688 | 37988 ft | 445 kts | 200° |
| 2026-04-30 04:22 | 47.45533 | 1.93298 | 38063 ft | 447 kts | 200° |
| 2026-04-30 04:23 | 47.39745 | 1.89946 | 38051 ft | 446 kts | 200° |
| 2026-04-30 04:23 | 47.33973 | 1.86621 | 38052 ft | 445 kts | 200° |
| 2026-04-30 04:24 | 47.28211 | 1.83309 | 38045 ft | 444 kts | 200° |
| 2026-04-30 04:24 | 47.22467 | 1.80013 | 38050 ft | 443 kts | 200° |
| 2026-04-30 04:25 | 47.16722 | 1.76745 | 38056 ft | 442 kts | 200° |
| 2026-04-30 04:25 | 47.10977 | 1.73519 | 38049 ft | 442 kts | 200° |
| 2026-04-30 04:26 | 47.05234 | 1.70299 | 38056 ft | 442 kts | 199° |
| 2026-04-30 04:26 | 46.99541 | 1.67112 | 38052 ft | 442 kts | 199° |
| 2026-04-30 04:27 | 46.93797 | 1.63900 | 38044 ft | 442 kts | 200° |
| 2026-04-30 04:27 | 46.88042 | 1.60689 | 38051 ft | 443 kts | 200° |
| 2026-04-30 04:28 | 46.82267 | 1.57476 | 38052 ft | 445 kts | 200° |
| 2026-04-30 04:28 | 46.76475 | 1.54260 | 38050 ft | 446 kts | 200° |
| 2026-04-30 04:29 | 46.71610 | 1.51564 | 38048 ft | 447 kts | 200° |
| 2026-04-30 04:29 | 46.65827 | 1.48366 | 38046 ft | 448 kts | 200° |
| 2026-04-30 04:30 | 46.59989 | 1.45145 | 38040 ft | 449 kts | 200° |
| 2026-04-30 04:30 | 46.54139 | 1.41925 | 38041 ft | 450 kts | 200° |
| 2026-04-30 04:31 | 46.48291 | 1.38714 | 38039 ft | 450 kts | 200° |
| 2026-04-30 04:31 | 46.42436 | 1.35506 | 38034 ft | 449 kts | 200° |
| 2026-04-30 04:32 | 46.36592 | 1.32311 | 38035 ft | 449 kts | 200° |
| 2026-04-30 04:32 | 46.30758 | 1.29130 | 38034 ft | 448 kts | 200° |
| 2026-04-30 04:33 | 46.24934 | 1.25960 | 38029 ft | 446 kts | 200° |
| 2026-04-30 04:33 | 46.19129 | 1.22809 | 38027 ft | 445 kts | 200° |
| 2026-04-30 04:34 | 46.13333 | 1.19669 | 38027 ft | 444 kts | 200° |
| 2026-04-30 04:34 | 46.07551 | 1.16544 | 38026 ft | 444 kts | 200° |
| 2026-04-30 04:35 | 46.01772 | 1.13427 | 38024 ft | 443 kts | 200° |
| 2026-04-30 04:35 | 45.96015 | 1.10329 | 38026 ft | 443 kts | 200° |
| 2026-04-30 04:36 | 45.90248 | 1.07232 | 38021 ft | 442 kts | 200° |
| 2026-04-30 04:36 | 45.84485 | 1.04143 | 38049 ft | 442 kts | 201° |
| 2026-04-30 04:37 | 45.79189 | 0.99915 | 38036 ft | 442 kts | 219° |
| 2026-04-30 04:37 | 45.74532 | 0.94302 | 38035 ft | 442 kts | 220° |
| 2026-04-30 04:38 | 45.69849 | 0.88589 | 38018 ft | 442 kts | 220° |
| 2026-04-30 04:38 | 45.65140 | 0.82921 | 38018 ft | 443 kts | 219° |
| 2026-04-30 04:39 | 45.60410 | 0.77281 | 38020 ft | 443 kts | 219° |
| 2026-04-30 04:39 | 45.55674 | 0.71657 | 38022 ft | 443 kts | 219° |
| 2026-04-30 04:40 | 45.50931 | 0.66039 | 38011 ft | 443 kts | 219° |
| 2026-04-30 04:40 | 45.46192 | 0.60435 | 38010 ft | 442 kts | 219° |
| 2026-04-30 04:41 | 45.41488 | 0.54886 | 38011 ft | 442 kts | 219° |
| 2026-04-30 04:41 | 45.36758 | 0.49317 | 38012 ft | 441 kts | 219° |
| 2026-04-30 04:42 | 45.32035 | 0.43770 | 38006 ft | 440 kts | 219° |
| 2026-04-30 04:42 | 45.27320 | 0.38243 | 38019 ft | 439 kts | 218° |
| 2026-04-30 04:43 | 45.22608 | 0.32732 | 38004 ft | 439 kts | 218° |
| 2026-04-30 04:43 | 45.17898 | 0.27237 | 38012 ft | 437 kts | 218° |
| 2026-04-30 04:44 | 45.13202 | 0.21769 | 38003 ft | 437 kts | 218° |
| 2026-04-30 04:44 | 45.08513 | 0.16319 | 38004 ft | 436 kts | 218° |
| 2026-04-30 04:45 | 45.03827 | 0.10887 | 38005 ft | 435 kts | 218° |
| 2026-04-30 04:45 | 44.99154 | 0.05484 | 38004 ft | 434 kts | 218° |
| 2026-04-30 04:46 | 44.94478 | 0.00089 | 38007 ft | 434 kts | 218° |
| 2026-04-30 04:46 | 44.89903 | -0.05182 | 38006 ft | 434 kts | 218° |
| 2026-04-30 04:47 | 44.85229 | -0.10555 | 38006 ft | 433 kts | 218° |
| 2026-04-30 04:47 | 44.80556 | -0.15917 | 38005 ft | 433 kts | 218° |
| 2026-04-30 04:48 | 44.75881 | -0.21269 | 38008 ft | 433 kts | 218° |
| 2026-04-30 04:48 | 44.71199 | -0.26620 | 38008 ft | 433 kts | 218° |
| 2026-04-30 04:49 | 44.66513 | -0.31962 | 38004 ft | 434 kts | 218° |
| 2026-04-30 04:49 | 44.61450 | -0.36501 | 38022 ft | 432 kts | 207° |
| 2026-04-30 04:50 | 44.56104 | -0.40361 | 38020 ft | 432 kts | 206° |
| 2026-04-30 04:50 | 44.50750 | -0.44231 | 38007 ft | 433 kts | 206° |
| 2026-04-30 04:51 | 44.45398 | -0.48134 | 38007 ft | 434 kts | 207° |
| 2026-04-30 04:51 | 44.40050 | -0.52046 | 38004 ft | 434 kts | 207° |
| 2026-04-30 04:52 | 44.34696 | -0.55958 | 38008 ft | 434 kts | 207° |
| 2026-04-30 04:52 | 44.29338 | -0.59865 | 38005 ft | 435 kts | 207° |
| 2026-04-30 04:53 | 44.23971 | -0.63770 | 38009 ft | 435 kts | 207° |
| 2026-04-30 04:53 | 44.18607 | -0.67664 | 38008 ft | 435 kts | 207° |
| 2026-04-30 04:54 | 44.13244 | -0.71549 | 38001 ft | 434 kts | 207° |
| 2026-04-30 04:54 | 44.07880 | -0.75427 | 37998 ft | 434 kts | 207° |
| 2026-04-30 04:55 | 44.02523 | -0.79292 | 37981 ft | 434 kts | 207° |
| 2026-04-30 04:55 | 43.97181 | -0.83138 | 37999 ft | 433 kts | 207° |
| 2026-04-30 04:56 | 43.91826 | -0.86986 | 37998 ft | 433 kts | 207° |
| 2026-04-30 04:56 | 43.86472 | -0.90825 | 37999 ft | 433 kts | 207° |
| 2026-04-30 04:57 | 43.81119 | -0.94655 | 37983 ft | 433 kts | 207° |
| 2026-04-30 04:57 | 43.75764 | -0.98480 | 37996 ft | 433 kts | 207° |
| 2026-04-30 04:58 | 43.70515 | -1.02221 | 37996 ft | 434 kts | 207° |
| 2026-04-30 04:58 | 43.65145 | -1.06040 | 37998 ft | 435 kts | 207° |
| 2026-04-30 04:59 | 43.59797 | -1.09837 | 37985 ft | 435 kts | 207° |
| 2026-04-30 04:59 | 43.54408 | -1.13655 | 37992 ft | 436 kts | 207° |
| 2026-04-30 05:00 | 43.48963 | -1.17505 | 37996 ft | 437 kts | 207° |
| 2026-04-30 05:00 | 43.43547 | -1.21326 | 37993 ft | 438 kts | 207° |
| 2026-04-30 05:01 | 43.38157 | -1.25120 | 37994 ft | 438 kts | 208° |
| 2026-04-30 05:01 | 43.32721 | -1.28941 | 37996 ft | 439 kts | 208° |
| 2026-04-30 05:02 | 43.27274 | -1.32762 | 37999 ft | 440 kts | 208° |
| 2026-04-30 05:02 | 43.21818 | -1.36581 | 37991 ft | 441 kts | 208° |
| 2026-04-30 05:03 | 43.16379 | -1.40376 | 37992 ft | 436 kts | 210° |
| 2026-04-30 05:03 | 43.11000 | -1.44133 | 38007 ft | 432 kts | 209° |
| 2026-04-30 05:04 | 43.05660 | -1.47849 | 38015 ft | 430 kts | 208° |
| 2026-04-30 05:04 | 43.00326 | -1.51558 | 38019 ft | 430 kts | 209° |
| 2026-04-30 05:05 | 42.94987 | -1.55268 | 38039 ft | 434 kts | 209° |
| 2026-04-30 05:05 | 42.89580 | -1.59020 | 38033 ft | 438 kts | 209° |
| 2026-04-30 05:06 | 42.81395 | -1.64683 | 38049 ft | 441 kts | 209° |
| 2026-04-30 05:06 | 42.75926 | -1.68458 | 38045 ft | 440 kts | 209° |
| 2026-04-30 05:07 | 42.70459 | -1.72199 | 38050 ft | 439 kts | 208° |
| 2026-04-30 05:07 | 42.64993 | -1.75863 | 38044 ft | 437 kts | 208° |
| 2026-04-30 05:08 | 42.59554 | -1.79500 | 38037 ft | 435 kts | 208° |
| 2026-04-30 05:08 | 42.54140 | -1.83124 | 38043 ft | 432 kts | 208° |
| 2026-04-30 05:09 | 42.48764 | -1.86719 | 38049 ft | 430 kts | 208° |
| 2026-04-30 05:09 | 42.43410 | -1.90291 | 38043 ft | 428 kts | 208° |
| 2026-04-30 05:10 | 42.38077 | -1.93848 | 38029 ft | 427 kts | 209° |
| 2026-04-30 05:10 | 42.32745 | -1.97401 | 38041 ft | 427 kts | 209° |
| 2026-04-30 05:11 | 42.27522 | -2.00883 | 38043 ft | 428 kts | 209° |
| 2026-04-30 05:11 | 42.22164 | -2.04441 | 38043 ft | 430 kts | 209° |
| 2026-04-30 05:12 | 42.17687 | -2.07405 | 38040 ft | 432 kts | 209° |
| 2026-04-30 05:12 | 42.12283 | -2.10978 | 38051 ft | 434 kts | 209° |
| 2026-04-30 05:13 | 42.06857 | -2.14559 | 38041 ft | 435 kts | 209° |
| 2026-04-30 05:13 | 42.01417 | -2.18143 | 38041 ft | 436 kts | 209° |
| 2026-04-30 05:14 | 41.95978 | -2.21720 | 38016 ft | 436 kts | 210° |
| 2026-04-30 05:14 | 41.93257 | -2.23507 | 37768 ft | 439 kts | 210° |
| 2026-04-30 05:14 | 41.90518 | -2.25305 | 37284 ft | 435 kts | 210° |
| 2026-04-30 05:15 | 41.87807 | -2.27079 | 36701 ft | 432 kts | 210° |
| 2026-04-30 05:15 | 41.85110 | -2.28845 | 36104 ft | 431 kts | 210° |
| 2026-04-30 05:15 | 41.82419 | -2.30606 | 35469 ft | 431 kts | 210° |
| 2026-04-30 05:15 | 41.79727 | -2.32367 | 34816 ft | 431 kts | 210° |
| 2026-04-30 05:16 | 41.77030 | -2.34128 | 34148 ft | 431 kts | 210° |
| 2026-04-30 05:16 | 41.74331 | -2.35890 | 33343 ft | 432 kts | 210° |
| 2026-04-30 05:16 | 41.71629 | -2.37651 | 32622 ft | 431 kts | 210° |
| 2026-04-30 05:16 | 41.68945 | -2.39397 | 32132 ft | 426 kts | 210° |
| 2026-04-30 05:17 | 41.66294 | -2.41120 | 31599 ft | 421 kts | 210° |
| 2026-04-30 05:17 | 41.63671 | -2.42824 | 31112 ft | 417 kts | 211° |
| 2026-04-30 05:17 | 41.61078 | -2.44508 | 30635 ft | 412 kts | 211° |
| 2026-04-30 05:17 | 41.58512 | -2.46174 | 30162 ft | 408 kts | 211° |
| 2026-04-30 05:18 | 41.55971 | -2.47823 | 29618 ft | 404 kts | 211° |
| 2026-04-30 05:18 | 41.53460 | -2.49451 | 29072 ft | 399 kts | 211° |
| 2026-04-30 05:18 | 41.50983 | -2.51052 | 28613 ft | 393 kts | 211° |
| 2026-04-30 05:18 | 41.48536 | -2.52630 | 28151 ft | 388 kts | 211° |
| 2026-04-30 05:19 | 41.46120 | -2.54177 | 27675 ft | 384 kts | 211° |
| 2026-04-30 05:19 | 41.43723 | -2.55710 | 27211 ft | 380 kts | 211° |
| 2026-04-30 05:19 | 41.41355 | -2.57225 | 26735 ft | 376 kts | 211° |
| 2026-04-30 05:19 | 41.39036 | -2.58709 | 26278 ft | 373 kts | 210° |
| 2026-04-30 05:20 | 41.36676 | -2.60217 | 25820 ft | 370 kts | 210° |
| 2026-04-30 05:20 | 41.34393 | -2.61673 | 25369 ft | 367 kts | 210° |
| 2026-04-30 05:20 | 41.31954 | -2.62740 | 24905 ft | 374 kts | 194° |
| 2026-04-30 05:20 | 41.29339 | -2.62856 | 24486 ft | 378 kts | 182° |
| 2026-04-30 05:21 | 41.26716 | -2.62630 | 24051 ft | 377 kts | 181° |
| 2026-04-30 05:21 | 41.24107 | -2.62349 | 23584 ft | 376 kts | 180° |
| 2026-04-30 05:21 | 41.21499 | -2.62067 | 23066 ft | 375 kts | 181° |
| 2026-04-30 05:21 | 41.18910 | -2.61802 | 22588 ft | 372 kts | 181° |
| 2026-04-30 05:22 | 41.16339 | -2.61554 | 22131 ft | 369 kts | 181° |
| 2026-04-30 05:22 | 41.13789 | -2.61318 | 21669 ft | 366 kts | 181° |
| 2026-04-30 05:22 | 41.11265 | -2.61090 | 21246 ft | 362 kts | 181° |
| 2026-04-30 05:22 | 41.08761 | -2.60867 | 20801 ft | 359 kts | 181° |
| 2026-04-30 05:23 | 41.06280 | -2.60647 | 20372 ft | 357 kts | 181° |
| 2026-04-30 05:23 | 41.03810 | -2.60428 | 19942 ft | 355 kts | 181° |
| 2026-04-30 05:23 | 41.01353 | -2.60211 | 19517 ft | 353 kts | 181° |
| 2026-04-30 05:23 | 40.98911 | -2.59994 | 19090 ft | 352 kts | 181° |
| 2026-04-30 05:24 | 40.96470 | -2.59778 | 18654 ft | 351 kts | 181° |
| 2026-04-30 05:24 | 40.94035 | -2.59562 | 18204 ft | 350 kts | 180° |
| 2026-04-30 05:24 | 40.91609 | -2.59347 | 17729 ft | 348 kts | 180° |
| 2026-04-30 05:24 | 40.89196 | -2.59133 | 17271 ft | 346 kts | 180° |
| 2026-04-30 05:25 | 40.86803 | -2.58921 | 16843 ft | 343 kts | 180° |
| 2026-04-30 05:25 | 40.84443 | -2.58917 | 16411 ft | 335 kts | 194° |
| 2026-04-30 05:25 | 40.82294 | -2.59926 | 16042 ft | 325 kts | 211° |
| 2026-04-30 05:25 | 40.80509 | -2.61698 | 15626 ft | 320 kts | 225° |
| 2026-04-30 05:26 | 40.78936 | -2.63767 | 15221 ft | 317 kts | 227° |
| 2026-04-30 05:26 | 40.77432 | -2.65826 | 15090 ft | 307 kts | 227° |
| 2026-04-30 05:26 | 40.75973 | -2.67822 | 14951 ft | 297 kts | 227° |
| 2026-04-30 05:26 | 40.74553 | -2.69749 | 14819 ft | 288 kts | 227° |
| 2026-04-30 05:27 | 40.73174 | -2.71609 | 14689 ft | 280 kts | 227° |
| 2026-04-30 05:27 | 40.71831 | -2.73410 | 14574 ft | 271 kts | 227° |
| 2026-04-30 05:27 | 40.70529 | -2.75151 | 14462 ft | 263 kts | 227° |
| 2026-04-30 05:27 | 40.69267 | -2.76833 | 14352 ft | 254 kts | 227° |
| 2026-04-30 05:28 | 40.68041 | -2.78465 | 14243 ft | 246 kts | 227° |
| 2026-04-30 05:28 | 40.66856 | -2.80039 | 14141 ft | 238 kts | 227° |
| 2026-04-30 05:28 | 40.65703 | -2.81558 | 14031 ft | 231 kts | 224° |
| 2026-04-30 05:28 | 40.64415 | -2.82774 | 13864 ft | 232 kts | 214° |
| 2026-04-30 05:29 | 40.63012 | -2.83878 | 13701 ft | 239 kts | 214° |
| 2026-04-30 05:29 | 40.61564 | -2.85020 | 13502 ft | 246 kts | 214° |
| 2026-04-30 05:29 | 40.60087 | -2.86189 | 13318 ft | 249 kts | 214° |
| 2026-04-30 05:29 | 40.58601 | -2.87370 | 13114 ft | 250 kts | 214° |
| 2026-04-30 05:30 | 40.57114 | -2.88557 | 12911 ft | 249 kts | 214° |
| 2026-04-30 05:30 | 40.55646 | -2.89731 | 12710 ft | 245 kts | 214° |
| 2026-04-30 05:30 | 40.54203 | -2.90887 | 12508 ft | 241 kts | 214° |
| 2026-04-30 05:30 | 40.52782 | -2.92027 | 12310 ft | 239 kts | 214° |
| 2026-04-30 05:31 | 40.51368 | -2.93162 | 12118 ft | 237 kts | 214° |
| 2026-04-30 05:31 | 40.49964 | -2.94290 | 11940 ft | 236 kts | 214° |
| 2026-04-30 05:31 | 40.48567 | -2.95413 | 11742 ft | 235 kts | 213° |
| 2026-04-30 05:31 | 40.47180 | -2.96527 | 11567 ft | 233 kts | 213° |
| 2026-04-30 05:32 | 40.45795 | -2.97638 | 11368 ft | 233 kts | 213° |
| 2026-04-30 05:32 | 40.44417 | -2.98743 | 11211 ft | 232 kts | 213° |
| 2026-04-30 05:32 | 40.43041 | -2.99845 | 11025 ft | 232 kts | 213° |
| 2026-04-30 05:32 | 40.41722 | -3.00902 | 10858 ft | 232 kts | 213° |
| 2026-04-30 05:33 | 40.40341 | -3.02008 | 10677 ft | 233 kts | 213° |
| 2026-04-30 05:33 | 40.38957 | -3.03116 | 10504 ft | 233 kts | 213° |
| 2026-04-30 05:33 | 40.37568 | -3.04227 | 10325 ft | 234 kts | 213° |
| 2026-04-30 05:33 | 40.36178 | -3.05339 | 10159 ft | 235 kts | 213° |
| 2026-04-30 05:34 | 40.34778 | -3.06458 | 9964 ft | 236 kts | 213° |
| 2026-04-30 05:34 | 40.33377 | -3.07578 | 9762 ft | 237 kts | 213° |
| 2026-04-30 05:34 | 40.31969 | -3.08703 | 9566 ft | 237 kts | 213° |
| 2026-04-30 05:34 | 40.30564 | -3.09824 | 9375 ft | 237 kts | 213° |
| 2026-04-30 05:35 | 40.29159 | -3.10944 | 9188 ft | 236 kts | 213° |
| 2026-04-30 05:35 | 40.27756 | -3.12062 | 9009 ft | 236 kts | 213° |
| 2026-04-30 05:35 | 40.26503 | -3.13366 | 8805 ft | 234 kts | 234° |
| 2026-04-30 05:35 | 40.25830 | -3.15315 | 8649 ft | 233 kts | 255° |
| 2026-04-30 05:36 | 40.25651 | -3.17395 | 8470 ft | 234 kts | 265° |
| 2026-04-30 05:36 | 40.25613 | -3.19518 | 8229 ft | 233 kts | 266° |
| 2026-04-30 05:36 | 40.25586 | -3.21646 | 7947 ft | 234 kts | 266° |
| 2026-04-30 05:36 | 40.25551 | -3.23815 | 7388 ft | 243 kts | 266° |
| 2026-04-30 05:37 | 40.25509 | -3.26050 | 6820 ft | 248 kts | 266° |
| 2026-04-30 05:37 | 40.25454 | -3.28341 | 6235 ft | 255 kts | 266° |
| 2026-04-30 05:37 | 40.25395 | -3.30686 | 5625 ft | 260 kts | 267° |
| 2026-04-30 05:37 | 40.25339 | -3.33011 | 5505 ft | 244 kts | 269° |
| 2026-04-30 05:38 | 40.25704 | -3.35079 | 5491 ft | 229 kts | 301° |
| 2026-04-30 05:38 | 40.26690 | -3.36669 | 5500 ft | 223 kts | 313° |
| 2026-04-30 05:38 | 40.27787 | -3.38055 | 5496 ft | 216 kts | 314° |
| 2026-04-30 05:38 | 40.28864 | -3.39392 | 5497 ft | 212 kts | 314° |
| 2026-04-30 05:39 | 40.29925 | -3.40726 | 5527 ft | 212 kts | 313° |
| 2026-04-30 05:39 | 40.30992 | -3.42077 | 5522 ft | 214 kts | 313° |
| 2026-04-30 05:39 | 40.32062 | -3.43437 | 5514 ft | 215 kts | 313° |
| 2026-04-30 05:39 | 40.33272 | -3.44594 | 5499 ft | 218 kts | 333° |
| 2026-04-30 05:40 | 40.34652 | -3.45374 | 5324 ft | 215 kts | 333° |
| 2026-04-30 05:40 | 40.36026 | -3.46188 | 4819 ft | 221 kts | 333° |
| 2026-04-30 05:40 | 40.37448 | -3.47046 | 4192 ft | 228 kts | 333° |
| 2026-04-30 05:40 | 40.38857 | -3.48013 | 3717 ft | 226 kts | 328° |
| 2026-04-30 05:41 | 40.40306 | -3.48599 | 3543 ft | 213 kts | 354° |
| 2026-04-30 05:41 | 40.41706 | -3.48875 | 3452 ft | 196 kts | 343° |
| 2026-04-30 05:41 | 40.42985 | -3.49335 | 3285 ft | 189 kts | 341° |
| 2026-04-30 05:41 | 40.44140 | -3.50183 | 2666 ft | 194 kts | 315° |
| 2026-04-30 05:42 | 40.45039 | -3.51347 | 2621 ft | 165 kts | 318° |
| 2026-04-30 05:42 | 40.45902 | -3.52180 | 2521 ft | 147 kts | 329° |
| 2026-04-30 05:42 | 40.46733 | -3.52932 | 2165 ft | 144 kts | 316° |
| 2026-04-30 05:42 | 40.47464 | -3.53737 | 1991 ft | 131 kts | 323° |
| 2026-04-30 05:43 | 40.48120 | -3.54396 | 1979 ft | 98 kts | 322° |
| 2026-04-30 05:43 | 40.48609 | -3.54892 | 1981 ft | 84 kts | 322° |
| 2026-04-30 05:43 | 40.49039 | -3.55325 | 1979 ft | 57 kts | 322° |
| 2026-04-30 05:43 | 40.49245 | -3.55707 | 1981 ft | 47 kts | 292° |
| 2026-04-30 05:44 | 40.49294 | -3.56053 | 1979 ft | 36 kts | 263° |
| 2026-04-30 05:44 | 40.49199 | -3.56258 | 1980 ft | 23 kts | 207° |
| 2026-04-30 05:44 | 40.49152 | -3.56367 | 1979 ft | 6 kts | 271° |
| 2026-04-30 05:44 | 40.49152 | -3.56369 | 1979 ft | 0 kts | 271° |